sensor_id;sensor_type;location;lat;lon;timestamp;P1;durP1;ratioP1;P2;durP2;ratioP2
36931;SDS011;22847;42.654;23.370;2022-10-31T00:01:52;6.50;;;3.38;;
36931;SDS011;22847;42.654;23.370;2022-10-31T00:04:17;8.57;;;3.30;;
36931;SDS011;22847;42.654;23.370;2022-10-31T00:06:42;9.52;;;4.10;;
36931;SDS011;22847;42.654;23.370;2022-10-31T00:09:08;8.38;;;3.58;;
36931;SDS011;22847;42.654;23.370;2022-10-31T00:11:34;9.30;;;4.35;;
36931;SDS011;22847;42.654;23.370;2022-10-31T00:14:00;9.02;;;3.50;;
36931;SDS011;22847;42.654;23.370;2022-10-31T00:16:26;9.85;;;3.75;;
36931;SDS011;22847;42.654;23.370;2022-10-31T00:18:53;7.13;;;4.13;;
36931;SDS011;22847;42.654;23.370;2022-10-31T00:21:20;7.60;;;3.88;;
36931;SDS011;22847;42.654;23.370;2022-10-31T00:23:46;7.47;;;4.32;;
36931;SDS011;22847;42.654;23.370;2022-10-31T00:26:12;8.65;;;4.28;;
36931;SDS011;22847;42.654;23.370;2022-10-31T00:28:37;12.60;;;4.32;;
36931;SDS011;22847;42.654;23.370;2022-10-31T00:31:04;10.25;;;4.25;;
36931;SDS011;22847;42.654;23.370;2022-10-31T00:33:32;9.20;;;3.80;;
36931;SDS011;22847;42.654;23.370;2022-10-31T00:35:58;14.90;;;3.55;;
36931;SDS011;22847;42.654;23.370;2022-10-31T00:38:24;8.80;;;4.50;;
36931;SDS011;22847;42.654;23.370;2022-10-31T00:40:49;8.23;;;4.22;;
36931;SDS011;22847;42.654;23.370;2022-10-31T00:43:14;8.68;;;3.60;;
36931;SDS011;22847;42.654;23.370;2022-10-31T00:45:43;7.47;;;3.83;;
36931;SDS011;22847;42.654;23.370;2022-10-31T00:48:09;5.97;;;3.35;;
36931;SDS011;22847;42.654;23.370;2022-10-31T00:50:34;7.88;;;3.58;;
36931;SDS011;22847;42.654;23.370;2022-10-31T00:53:00;11.43;;;3.72;;
36931;SDS011;22847;42.654;23.370;2022-10-31T00:55:26;8.95;;;4.22;;
36931;SDS011;22847;42.654;23.370;2022-10-31T00:57:51;10.10;;;4.10;;
36931;SDS011;22847;42.654;23.370;2022-10-31T01:00:17;8.27;;;3.85;;
36931;SDS011;22847;42.654;23.370;2022-10-31T01:02:42;8.13;;;3.88;;
36931;SDS011;22847;42.654;23.370;2022-10-31T01:05:08;7.10;;;3.90;;
36931;SDS011;22847;42.654;23.370;2022-10-31T01:07:37;7.13;;;3.58;;
36931;SDS011;22847;42.654;23.370;2022-10-31T01:10:04;7.38;;;3.42;;
36931;SDS011;22847;42.654;23.370;2022-10-31T01:12:35;8.85;;;4.45;;
36931;SDS011;22847;42.654;23.370;2022-10-31T01:15:02;6.95;;;4.03;;
36931;SDS011;22847;42.654;23.370;2022-10-31T01:17:27;7.30;;;3.70;;
36931;SDS011;22847;42.654;23.370;2022-10-31T01:19:53;9.73;;;4.07;;
36931;SDS011;22847;42.654;23.370;2022-10-31T01:22:18;6.95;;;4.63;;
36931;SDS011;22847;42.654;23.370;2022-10-31T01:24:44;8.30;;;4.13;;
36931;SDS011;22847;42.654;23.370;2022-10-31T01:27:09;11.20;;;4.90;;
36931;SDS011;22847;42.654;23.370;2022-10-31T01:29:34;12.48;;;4.65;;
36931;SDS011;22847;42.654;23.370;2022-10-31T01:32:00;9.10;;;4.50;;
36931;SDS011;22847;42.654;23.370;2022-10-31T01:34:25;8.77;;;4.32;;
36931;SDS011;22847;42.654;23.370;2022-10-31T01:36:51;12.93;;;5.00;;
36931;SDS011;22847;42.654;23.370;2022-10-31T01:39:17;10.68;;;4.93;;
36931;SDS011;22847;42.654;23.370;2022-10-31T01:41:45;11.73;;;4.90;;
36931;SDS011;22847;42.654;23.370;2022-10-31T01:46:40;14.55;;;6.40;;
36931;SDS011;22847;42.654;23.370;2022-10-31T01:49:16;13.45;;;5.88;;
36931;SDS011;22847;42.654;23.370;2022-10-31T01:51:59;12.60;;;6.28;;
36931;SDS011;22847;42.654;23.370;2022-10-31T01:54:30;15.43;;;6.18;;
36931;SDS011;22847;42.654;23.370;2022-10-31T01:57:00;11.15;;;5.78;;
36931;SDS011;22847;42.654;23.370;2022-10-31T01:59:28;13.30;;;5.40;;
36931;SDS011;22847;42.654;23.370;2022-10-31T02:01:57;11.05;;;5.68;;
36931;SDS011;22847;42.654;23.370;2022-10-31T02:04:23;9.23;;;5.88;;
36931;SDS011;22847;42.654;23.370;2022-10-31T02:09:21;11.48;;;5.55;;
36931;SDS011;22847;42.654;23.370;2022-10-31T02:11:52;10.13;;;5.57;;
36931;SDS011;22847;42.654;23.370;2022-10-31T02:14:24;18.27;;;6.25;;
36931;SDS011;22847;42.654;23.370;2022-10-31T02:16:51;14.05;;;6.18;;
36931;SDS011;22847;42.654;23.370;2022-10-31T02:19:27;10.32;;;5.53;;
36931;SDS011;22847;42.654;23.370;2022-10-31T02:22:16;9.45;;;5.63;;
36931;SDS011;22847;42.654;23.370;2022-10-31T02:31:03;13.10;;;6.13;;
36931;SDS011;22847;42.654;23.370;2022-10-31T02:33:50;12.45;;;5.72;;
36931;SDS011;22847;42.654;23.370;2022-10-31T02:44:38;10.18;;;5.15;;
36931;SDS011;22847;42.654;23.370;2022-10-31T02:47:13;8.77;;;5.55;;
36931;SDS011;22847;42.654;23.370;2022-10-31T02:52:21;10.48;;;5.25;;
36931;SDS011;22847;42.654;23.370;2022-10-31T02:54:50;9.30;;;4.95;;
36931;SDS011;22847;42.654;23.370;2022-10-31T02:57:17;10.70;;;4.95;;
36931;SDS011;22847;42.654;23.370;2022-10-31T02:59:56;10.13;;;5.20;;
36931;SDS011;22847;42.654;23.370;2022-10-31T03:02:34;11.15;;;5.80;;
36931;SDS011;22847;42.654;23.370;2022-10-31T03:10:13;8.93;;;5.45;;
36931;SDS011;22847;42.654;23.370;2022-10-31T03:15:45;15.25;;;5.95;;
36931;SDS011;22847;42.654;23.370;2022-10-31T03:19:01;12.23;;;5.95;;
36931;SDS011;22847;42.654;23.370;2022-10-31T03:21:06;12.40;;;5.38;;
36931;SDS011;22847;42.654;23.370;2022-10-31T03:23:37;9.55;;;5.25;;
36931;SDS011;22847;42.654;23.370;2022-10-31T03:26:05;11.35;;;5.60;;
36931;SDS011;22847;42.654;23.370;2022-10-31T03:28:44;11.10;;;6.15;;
36931;SDS011;22847;42.654;23.370;2022-10-31T03:31:32;10.27;;;6.00;;
36931;SDS011;22847;42.654;23.370;2022-10-31T03:34:01;11.48;;;5.38;;
36931;SDS011;22847;42.654;23.370;2022-10-31T03:36:28;14.80;;;5.85;;
36931;SDS011;22847;42.654;23.370;2022-10-31T03:38:57;9.65;;;5.53;;
36931;SDS011;22847;42.654;23.370;2022-10-31T03:41:25;10.60;;;5.25;;
36931;SDS011;22847;42.654;23.370;2022-10-31T03:44:04;10.18;;;5.57;;
36931;SDS011;22847;42.654;23.370;2022-10-31T03:46:35;11.13;;;5.68;;
36931;SDS011;22847;42.654;23.370;2022-10-31T03:49:00;18.50;;;5.30;;
36931;SDS011;22847;42.654;23.370;2022-10-31T03:52:09;11.60;;;5.20;;
36931;SDS011;22847;42.654;23.370;2022-10-31T03:54:35;13.40;;;5.15;;
36931;SDS011;22847;42.654;23.370;2022-10-31T03:57:08;8.75;;;4.78;;
36931;SDS011;22847;42.654;23.370;2022-10-31T03:59:47;12.50;;;5.60;;
36931;SDS011;22847;42.654;23.370;2022-10-31T04:02:19;9.95;;;5.53;;
36931;SDS011;22847;42.654;23.370;2022-10-31T04:04:49;13.48;;;5.28;;
36931;SDS011;22847;42.654;23.370;2022-10-31T04:07:16;10.90;;;5.70;;
36931;SDS011;22847;42.654;23.370;2022-10-31T04:09:44;24.77;;;6.00;;
36931;SDS011;22847;42.654;23.370;2022-10-31T04:12:12;11.15;;;5.13;;
36931;SDS011;22847;42.654;23.370;2022-10-31T04:14:41;15.95;;;7.13;;
36931;SDS011;22847;42.654;23.370;2022-10-31T04:17:11;11.80;;;6.35;;
36931;SDS011;22847;42.654;23.370;2022-10-31T04:19:39;13.20;;;6.45;;
36931;SDS011;22847;42.654;23.370;2022-10-31T04:22:05;11.38;;;7.03;;
36931;SDS011;22847;42.654;23.370;2022-10-31T04:24:30;13.68;;;6.78;;
36931;SDS011;22847;42.654;23.370;2022-10-31T04:26:55;11.38;;;6.57;;
36931;SDS011;22847;42.654;23.370;2022-10-31T04:29:21;13.30;;;6.40;;
36931;SDS011;22847;42.654;23.370;2022-10-31T04:31:46;11.98;;;6.72;;
36931;SDS011;22847;42.654;23.370;2022-10-31T04:34:11;15.70;;;7.50;;
36931;SDS011;22847;42.654;23.370;2022-10-31T04:36:37;16.17;;;7.93;;
36931;SDS011;22847;42.654;23.370;2022-10-31T04:39:02;15.13;;;6.85;;
36931;SDS011;22847;42.654;23.370;2022-10-31T04:41:28;16.92;;;7.43;;
36931;SDS011;22847;42.654;23.370;2022-10-31T04:43:53;15.35;;;7.00;;
36931;SDS011;22847;42.654;23.370;2022-10-31T04:46:19;14.27;;;7.82;;
36931;SDS011;22847;42.654;23.370;2022-10-31T04:48:44;13.43;;;7.15;;
36931;SDS011;22847;42.654;23.370;2022-10-31T04:51:10;14.20;;;6.97;;
36931;SDS011;22847;42.654;23.370;2022-10-31T04:53:35;18.05;;;7.75;;
36931;SDS011;22847;42.654;23.370;2022-10-31T04:56:01;25.58;;;9.55;;
36931;SDS011;22847;42.654;23.370;2022-10-31T04:58:27;14.88;;;8.45;;
36931;SDS011;22847;42.654;23.370;2022-10-31T05:00:53;21.63;;;8.68;;
36931;SDS011;22847;42.654;23.370;2022-10-31T05:03:19;23.17;;;9.80;;
36931;SDS011;22847;42.654;23.370;2022-10-31T05:05:45;20.85;;;9.88;;
36931;SDS011;22847;42.654;23.370;2022-10-31T05:08:11;15.75;;;9.63;;
36931;SDS011;22847;42.654;23.370;2022-10-31T05:10:36;18.38;;;8.00;;
36931;SDS011;22847;42.654;23.370;2022-10-31T05:13:02;19.23;;;7.80;;
36931;SDS011;22847;42.654;23.370;2022-10-31T05:15:28;16.70;;;7.82;;
36931;SDS011;22847;42.654;23.370;2022-10-31T05:17:54;15.93;;;8.05;;
36931;SDS011;22847;42.654;23.370;2022-10-31T05:20:21;18.70;;;8.30;;
36931;SDS011;22847;42.654;23.370;2022-10-31T05:22:50;19.58;;;9.00;;
36931;SDS011;22847;42.654;23.370;2022-10-31T05:25:18;15.73;;;9.15;;
36931;SDS011;22847;42.654;23.370;2022-10-31T05:27:45;16.58;;;9.32;;
36931;SDS011;22847;42.654;23.370;2022-10-31T05:30:14;21.45;;;10.20;;
36931;SDS011;22847;42.654;23.370;2022-10-31T05:32:45;20.40;;;9.57;;
36931;SDS011;22847;42.654;23.370;2022-10-31T05:35:13;21.58;;;10.10;;
36931;SDS011;22847;42.654;23.370;2022-10-31T05:37:59;20.15;;;10.25;;
36931;SDS011;22847;42.654;23.370;2022-10-31T05:40:25;26.42;;;11.07;;
36931;SDS011;22847;42.654;23.370;2022-10-31T05:42:52;21.98;;;10.38;;
36931;SDS011;22847;42.654;23.370;2022-10-31T05:45:19;20.75;;;10.02;;
36931;SDS011;22847;42.654;23.370;2022-10-31T05:47:55;25.17;;;10.38;;
36931;SDS011;22847;42.654;23.370;2022-10-31T05:50:23;18.52;;;9.88;;
36931;SDS011;22847;42.654;23.370;2022-10-31T05:55:26;17.75;;;10.25;;
36931;SDS011;22847;42.654;23.370;2022-10-31T05:57:52;22.80;;;10.82;;
36931;SDS011;22847;42.654;23.370;2022-10-31T06:00:19;17.42;;;10.40;;
36931;SDS011;22847;42.654;23.370;2022-10-31T06:02:45;19.35;;;10.43;;
36931;SDS011;22847;42.654;23.370;2022-10-31T06:05:10;23.23;;;9.48;;
36931;SDS011;22847;42.654;23.370;2022-10-31T06:07:36;21.05;;;9.52;;
36931;SDS011;22847;42.654;23.370;2022-10-31T06:10:02;20.75;;;9.10;;
36931;SDS011;22847;42.654;23.370;2022-10-31T06:12:29;19.52;;;9.50;;
36931;SDS011;22847;42.654;23.370;2022-10-31T06:14:55;26.83;;;9.18;;
36931;SDS011;22847;42.654;23.370;2022-10-31T06:17:20;21.33;;;9.05;;
36931;SDS011;22847;42.654;23.370;2022-10-31T06:19:46;22.38;;;8.98;;
36931;SDS011;22847;42.654;23.370;2022-10-31T06:22:11;20.45;;;8.98;;
36931;SDS011;22847;42.654;23.370;2022-10-31T06:24:37;20.40;;;10.02;;
36931;SDS011;22847;42.654;23.370;2022-10-31T06:27:03;18.25;;;10.95;;
36931;SDS011;22847;42.654;23.370;2022-10-31T06:29:29;20.60;;;11.15;;
36931;SDS011;22847;42.654;23.370;2022-10-31T06:31:54;23.38;;;12.63;;
36931;SDS011;22847;42.654;23.370;2022-10-31T06:34:20;17.90;;;10.57;;
36931;SDS011;22847;42.654;23.370;2022-10-31T06:36:45;16.60;;;10.25;;
36931;SDS011;22847;42.654;23.370;2022-10-31T06:39:11;27.48;;;12.98;;
36931;SDS011;22847;42.654;23.370;2022-10-31T06:41:37;15.18;;;10.35;;
36931;SDS011;22847;42.654;23.370;2022-10-31T06:44:04;16.38;;;10.63;;
36931;SDS011;22847;42.654;23.370;2022-10-31T06:46:30;22.65;;;10.60;;
36931;SDS011;22847;42.654;23.370;2022-10-31T06:48:56;23.48;;;15.00;;
36931;SDS011;22847;42.654;23.370;2022-10-31T06:51:21;21.67;;;12.45;;
36931;SDS011;22847;42.654;23.370;2022-10-31T06:53:46;23.80;;;12.05;;
36931;SDS011;22847;42.654;23.370;2022-10-31T06:56:12;28.95;;;14.32;;
36931;SDS011;22847;42.654;23.370;2022-10-31T06:58:37;26.77;;;11.65;;
36931;SDS011;22847;42.654;23.370;2022-10-31T07:01:02;20.02;;;10.55;;
36931;SDS011;22847;42.654;23.370;2022-10-31T07:03:28;18.67;;;10.05;;
36931;SDS011;22847;42.654;23.370;2022-10-31T07:05:56;17.35;;;10.73;;
36931;SDS011;22847;42.654;23.370;2022-10-31T07:08:22;25.60;;;11.48;;
36931;SDS011;22847;42.654;23.370;2022-10-31T07:10:52;17.50;;;11.90;;
36931;SDS011;22847;42.654;23.370;2022-10-31T07:13:19;32.40;;;15.27;;
36931;SDS011;22847;42.654;23.370;2022-10-31T07:15:49;25.08;;;12.10;;
36931;SDS011;22847;42.654;23.370;2022-10-31T07:18:15;27.52;;;15.07;;
36931;SDS011;22847;42.654;23.370;2022-10-31T07:20:40;27.15;;;13.82;;
36931;SDS011;22847;42.654;23.370;2022-10-31T07:23:07;28.00;;;13.30;;
36931;SDS011;22847;42.654;23.370;2022-10-31T07:25:34;20.70;;;11.48;;
36931;SDS011;22847;42.654;23.370;2022-10-31T07:27:59;20.95;;;11.45;;
36931;SDS011;22847;42.654;23.370;2022-10-31T07:30:25;20.33;;;11.40;;
36931;SDS011;22847;42.654;23.370;2022-10-31T07:32:50;17.58;;;11.15;;
36931;SDS011;22847;42.654;23.370;2022-10-31T07:35:17;20.98;;;11.38;;
36931;SDS011;22847;42.654;23.370;2022-10-31T07:37:46;23.92;;;11.88;;
36931;SDS011;22847;42.654;23.370;2022-10-31T07:40:12;23.60;;;12.20;;
36931;SDS011;22847;42.654;23.370;2022-10-31T07:42:46;20.15;;;12.50;;
36931;SDS011;22847;42.654;23.370;2022-10-31T07:45:16;21.67;;;12.35;;
36931;SDS011;22847;42.654;23.370;2022-10-31T07:47:44;27.10;;;13.00;;
36931;SDS011;22847;42.654;23.370;2022-10-31T07:50:11;32.13;;;13.45;;
36931;SDS011;22847;42.654;23.370;2022-10-31T07:52:41;32.05;;;14.00;;
36931;SDS011;22847;42.654;23.370;2022-10-31T07:55:07;24.60;;;12.98;;
36931;SDS011;22847;42.654;23.370;2022-10-31T07:57:33;27.63;;;13.00;;
36931;SDS011;22847;42.654;23.370;2022-10-31T07:59:59;22.42;;;12.85;;
36931;SDS011;22847;42.654;23.370;2022-10-31T08:02:24;22.40;;;12.23;;
36931;SDS011;22847;42.654;23.370;2022-10-31T08:04:50;24.50;;;14.15;;
36931;SDS011;22847;42.654;23.370;2022-10-31T08:07:16;32.42;;;13.73;;
36931;SDS011;22847;42.654;23.370;2022-10-31T08:09:42;21.42;;;12.40;;
36931;SDS011;22847;42.654;23.370;2022-10-31T08:12:07;28.02;;;13.32;;
36931;SDS011;22847;42.654;23.370;2022-10-31T08:14:33;19.38;;;12.63;;
36931;SDS011;22847;42.654;23.370;2022-10-31T08:16:58;25.85;;;13.80;;
36931;SDS011;22847;42.654;23.370;2022-10-31T08:19:24;28.98;;;13.30;;
36931;SDS011;22847;42.654;23.370;2022-10-31T08:21:53;23.85;;;14.02;;
36931;SDS011;22847;42.654;23.370;2022-10-31T08:24:20;25.58;;;13.30;;
36931;SDS011;22847;42.654;23.370;2022-10-31T08:26:46;27.65;;;13.85;;
36931;SDS011;22847;42.654;23.370;2022-10-31T08:29:11;33.90;;;14.57;;
36931;SDS011;22847;42.654;23.370;2022-10-31T08:31:37;22.83;;;12.93;;
36931;SDS011;22847;42.654;23.370;2022-10-31T08:34:03;23.90;;;13.63;;
36931;SDS011;22847;42.654;23.370;2022-10-31T08:36:29;25.80;;;12.60;;
36931;SDS011;22847;42.654;23.370;2022-10-31T08:38:54;23.10;;;12.77;;
36931;SDS011;22847;42.654;23.370;2022-10-31T08:41:20;23.25;;;13.40;;
36931;SDS011;22847;42.654;23.370;2022-10-31T08:43:46;30.70;;;12.60;;
36931;SDS011;22847;42.654;23.370;2022-10-31T08:46:11;23.58;;;12.50;;
36931;SDS011;22847;42.654;23.370;2022-10-31T08:48:37;27.02;;;11.95;;
36931;SDS011;22847;42.654;23.370;2022-10-31T08:51:03;23.27;;;12.45;;
36931;SDS011;22847;42.654;23.370;2022-10-31T08:53:28;21.33;;;11.60;;
36931;SDS011;22847;42.654;23.370;2022-10-31T08:55:54;18.27;;;11.68;;
36931;SDS011;22847;42.654;23.370;2022-10-31T08:58:21;25.08;;;13.38;;
36931;SDS011;22847;42.654;23.370;2022-10-31T09:00:48;25.95;;;12.45;;
36931;SDS011;22847;42.654;23.370;2022-10-31T09:03:16;21.48;;;11.55;;
36931;SDS011;22847;42.654;23.370;2022-10-31T09:05:46;21.05;;;10.95;;
36931;SDS011;22847;42.654;23.370;2022-10-31T09:08:12;17.77;;;11.05;;
36931;SDS011;22847;42.654;23.370;2022-10-31T09:10:38;19.58;;;9.90;;
36931;SDS011;22847;42.654;23.370;2022-10-31T09:13:22;23.83;;;11.65;;
36931;SDS011;22847;42.654;23.370;2022-10-31T09:15:48;23.63;;;10.55;;
36931;SDS011;22847;42.654;23.370;2022-10-31T09:18:16;21.35;;;9.82;;
36931;SDS011;22847;42.654;23.370;2022-10-31T09:20:43;24.85;;;10.43;;
36931;SDS011;22847;42.654;23.370;2022-10-31T09:23:11;18.95;;;9.65;;
36931;SDS011;22847;42.654;23.370;2022-10-31T09:25:38;25.13;;;10.32;;
36931;SDS011;22847;42.654;23.370;2022-10-31T09:28:05;23.30;;;10.77;;
36931;SDS011;22847;42.654;23.370;2022-10-31T09:30:32;21.40;;;10.98;;
36931;SDS011;22847;42.654;23.370;2022-10-31T09:33:03;22.38;;;12.18;;
36931;SDS011;22847;42.654;23.370;2022-10-31T09:35:30;23.20;;;10.40;;
36931;SDS011;22847;42.654;23.370;2022-10-31T09:38:00;20.17;;;10.13;;
36931;SDS011;22847;42.654;23.370;2022-10-31T09:40:36;18.95;;;9.90;;
36931;SDS011;22847;42.654;23.370;2022-10-31T09:51:22;19.80;;;9.68;;
36931;SDS011;22847;42.654;23.370;2022-10-31T09:56:34;17.27;;;9.00;;
36931;SDS011;22847;42.654;23.370;2022-10-31T09:59:02;17.30;;;9.63;;
36931;SDS011;22847;42.654;23.370;2022-10-31T10:06:48;20.73;;;9.73;;
36931;SDS011;22847;42.654;23.370;2022-10-31T10:09:24;22.00;;;8.27;;
36931;SDS011;22847;42.654;23.370;2022-10-31T10:14:38;16.35;;;8.18;;
36931;SDS011;22847;42.654;23.370;2022-10-31T10:20:05;18.13;;;7.05;;
36931;SDS011;22847;42.654;23.370;2022-10-31T10:25:37;10.60;;;4.85;;
36931;SDS011;22847;42.654;23.370;2022-10-31T10:30:46;21.27;;;9.98;;
36931;SDS011;22847;42.654;23.370;2022-10-31T10:33:18;17.48;;;6.90;;
36931;SDS011;22847;42.654;23.370;2022-10-31T10:35:54;12.80;;;6.35;;
36931;SDS011;22847;42.654;23.370;2022-10-31T10:38:32;13.02;;;5.05;;
36931;SDS011;22847;42.654;23.370;2022-10-31T10:41:05;11.55;;;5.53;;
36931;SDS011;22847;42.654;23.370;2022-10-31T10:54:59;7.50;;;3.58;;
36931;SDS011;22847;42.654;23.370;2022-10-31T10:57:45;15.80;;;3.97;;
36931;SDS011;22847;42.654;23.370;2022-10-31T11:00:36;10.05;;;3.95;;
36931;SDS011;22847;42.654;23.370;2022-10-31T11:03:05;14.80;;;4.70;;
36931;SDS011;22847;42.654;23.370;2022-10-31T11:05:36;15.57;;;5.15;;
36931;SDS011;22847;42.654;23.370;2022-10-31T11:08:22;16.33;;;4.65;;
36931;SDS011;22847;42.654;23.370;2022-10-31T11:10:59;8.30;;;3.60;;
36931;SDS011;22847;42.654;23.370;2022-10-31T11:13:28;6.38;;;3.38;;
36931;SDS011;22847;42.654;23.370;2022-10-31T11:18:34;9.15;;;3.80;;
36931;SDS011;22847;42.654;23.370;2022-10-31T11:21:04;13.25;;;4.15;;
36931;SDS011;22847;42.654;23.370;2022-10-31T11:23:30;9.43;;;3.72;;
36931;SDS011;22847;42.654;23.370;2022-10-31T11:28:26;10.15;;;4.65;;
36931;SDS011;22847;42.654;23.370;2022-10-31T11:30:55;10.70;;;4.15;;
36931;SDS011;22847;42.654;23.370;2022-10-31T11:35:48;9.18;;;3.67;;
36931;SDS011;22847;42.654;23.370;2022-10-31T11:38:18;13.00;;;6.40;;
36931;SDS011;22847;42.654;23.370;2022-10-31T11:40:59;12.18;;;3.60;;
36931;SDS011;22847;42.654;23.370;2022-10-31T11:43:34;7.72;;;3.50;;
36931;SDS011;22847;42.654;23.370;2022-10-31T11:46:07;8.68;;;3.35;;
36931;SDS011;22847;42.654;23.370;2022-10-31T11:48:37;13.05;;;3.85;;
36931;SDS011;22847;42.654;23.370;2022-10-31T11:51:03;9.18;;;3.55;;
36931;SDS011;22847;42.654;23.370;2022-10-31T11:53:30;9.45;;;4.10;;
36931;SDS011;22847;42.654;23.370;2022-10-31T11:56:14;9.88;;;3.45;;
36931;SDS011;22847;42.654;23.370;2022-10-31T11:58:41;8.40;;;3.45;;
36931;SDS011;22847;42.654;23.370;2022-10-31T12:01:20;10.15;;;3.72;;
36931;SDS011;22847;42.654;23.370;2022-10-31T12:04:08;10.65;;;3.90;;
36931;SDS011;22847;42.654;23.370;2022-10-31T12:06:39;13.13;;;3.72;;
36931;SDS011;22847;42.654;23.370;2022-10-31T12:09:25;7.93;;;4.00;;
36931;SDS011;22847;42.654;23.370;2022-10-31T12:17:18;14.18;;;4.25;;
36931;SDS011;22847;42.654;23.370;2022-10-31T12:19:59;10.95;;;3.90;;
36931;SDS011;22847;42.654;23.370;2022-10-31T12:23:28;13.98;;;4.18;;
36931;SDS011;22847;42.654;23.370;2022-10-31T12:25:46;14.75;;;5.78;;
36931;SDS011;22847;42.654;23.370;2022-10-31T12:47:50;13.85;;;4.70;;
36931;SDS011;22847;42.654;23.370;2022-10-31T12:50:22;10.10;;;3.95;;
36931;SDS011;22847;42.654;23.370;2022-10-31T12:58:33;11.85;;;4.13;;
36931;SDS011;22847;42.654;23.370;2022-10-31T13:01:08;12.13;;;4.45;;
36931;SDS011;22847;42.654;23.370;2022-10-31T13:06:09;8.73;;;3.75;;
36931;SDS011;22847;42.654;23.370;2022-10-31T13:08:48;9.43;;;3.28;;
36931;SDS011;22847;42.654;23.370;2022-10-31T13:11:29;13.85;;;3.83;;
36931;SDS011;22847;42.654;23.370;2022-10-31T13:16:29;14.70;;;3.60;;
36931;SDS011;22847;42.654;23.370;2022-10-31T13:21:41;12.65;;;4.05;;
36931;SDS011;22847;42.654;23.370;2022-10-31T13:24:20;11.18;;;4.03;;
36931;SDS011;22847;42.654;23.370;2022-10-31T13:27:15;12.57;;;3.38;;
36931;SDS011;22847;42.654;23.370;2022-10-31T13:30:03;7.57;;;3.95;;
36931;SDS011;22847;42.654;23.370;2022-10-31T13:46:36;7.93;;;3.20;;
36931;SDS011;22847;42.654;23.370;2022-10-31T13:49:04;12.35;;;3.50;;
36931;SDS011;22847;42.654;23.370;2022-10-31T13:51:47;14.55;;;4.07;;
36931;SDS011;22847;42.654;23.370;2022-10-31T13:54:24;11.40;;;4.15;;
36931;SDS011;22847;42.654;23.370;2022-10-31T13:56:57;8.95;;;3.55;;
36931;SDS011;22847;42.654;23.370;2022-10-31T13:59:24;8.13;;;3.72;;
36931;SDS011;22847;42.654;23.370;2022-10-31T14:01:56;9.32;;;3.65;;
36931;SDS011;22847;42.654;23.370;2022-10-31T14:04:31;11.40;;;3.38;;
36931;SDS011;22847;42.654;23.370;2022-10-31T14:07:12;14.70;;;3.72;;
36931;SDS011;22847;42.654;23.370;2022-10-31T14:15:17;14.35;;;4.43;;
36931;SDS011;22847;42.654;23.370;2022-10-31T14:17:47;10.05;;;4.05;;
36931;SDS011;22847;42.654;23.370;2022-10-31T14:22:41;8.32;;;4.13;;
36931;SDS011;22847;42.654;23.370;2022-10-31T14:27:51;11.65;;;3.97;;
36931;SDS011;22847;42.654;23.370;2022-10-31T14:30:21;13.63;;;4.03;;
36931;SDS011;22847;42.654;23.370;2022-10-31T14:32:53;11.25;;;4.45;;
36931;SDS011;22847;42.654;23.370;2022-10-31T14:35:23;20.10;;;6.78;;
36931;SDS011;22847;42.654;23.370;2022-10-31T14:37:58;9.93;;;4.10;;
36931;SDS011;22847;42.654;23.370;2022-10-31T14:40:35;14.18;;;4.30;;
36931;SDS011;22847;42.654;23.370;2022-10-31T14:51:43;13.43;;;4.25;;
36931;SDS011;22847;42.654;23.370;2022-10-31T14:54:12;16.73;;;3.97;;
36931;SDS011;22847;42.654;23.370;2022-10-31T14:56:53;9.70;;;4.18;;
36931;SDS011;22847;42.654;23.370;2022-10-31T14:59:25;17.63;;;4.93;;
36931;SDS011;22847;42.654;23.370;2022-10-31T15:01:58;21.33;;;5.15;;
36931;SDS011;22847;42.654;23.370;2022-10-31T15:04:27;13.73;;;4.85;;
36931;SDS011;22847;42.654;23.370;2022-10-31T15:07:00;17.67;;;4.18;;
36931;SDS011;22847;42.654;23.370;2022-10-31T15:09:31;21.65;;;5.05;;
36931;SDS011;22847;42.654;23.370;2022-10-31T15:11:58;25.77;;;5.78;;
36931;SDS011;22847;42.654;23.370;2022-10-31T15:14:29;30.52;;;5.50;;
36931;SDS011;22847;42.654;23.370;2022-10-31T15:17:01;26.30;;;5.60;;
36931;SDS011;22847;42.654;23.370;2022-10-31T15:19:28;18.75;;;3.97;;
36931;SDS011;22847;42.654;23.370;2022-10-31T15:21:57;14.73;;;4.13;;
36931;SDS011;22847;42.654;23.370;2022-10-31T15:24:24;17.45;;;4.00;;
36931;SDS011;22847;42.654;23.370;2022-10-31T15:26:58;31.40;;;15.38;;
36931;SDS011;22847;42.654;23.370;2022-10-31T15:29:24;14.60;;;3.65;;
36931;SDS011;22847;42.654;23.370;2022-10-31T15:37:03;16.73;;;4.57;;
36931;SDS011;22847;42.654;23.370;2022-10-31T15:39:28;13.75;;;4.40;;
36931;SDS011;22847;42.654;23.370;2022-10-31T15:41:55;15.57;;;3.35;;
36931;SDS011;22847;42.654;23.370;2022-10-31T15:46:55;19.65;;;4.68;;
36931;SDS011;22847;42.654;23.370;2022-10-31T15:49:35;24.35;;;5.40;;
36931;SDS011;22847;42.654;23.370;2022-10-31T15:52:02;32.83;;;7.55;;
36931;SDS011;22847;42.654;23.370;2022-10-31T15:54:30;34.38;;;8.38;;
36931;SDS011;22847;42.654;23.370;2022-10-31T15:56:56;27.27;;;7.20;;
36931;SDS011;22847;42.654;23.370;2022-10-31T15:59:23;22.23;;;5.80;;
36931;SDS011;22847;42.654;23.370;2022-10-31T16:02:01;17.95;;;5.82;;
36931;SDS011;22847;42.654;23.370;2022-10-31T16:04:28;34.22;;;7.13;;
36931;SDS011;22847;42.654;23.370;2022-10-31T16:10:39;24.05;;;5.80;;
36931;SDS011;22847;42.654;23.370;2022-10-31T16:12:46;17.80;;;5.45;;
36931;SDS011;22847;42.654;23.370;2022-10-31T16:15:16;19.15;;;5.40;;
36931;SDS011;22847;42.654;23.370;2022-10-31T16:17:44;18.15;;;5.93;;
36931;SDS011;22847;42.654;23.370;2022-10-31T16:20:21;25.02;;;10.68;;
36931;SDS011;22847;42.654;23.370;2022-10-31T16:22:50;23.92;;;8.95;;
36931;SDS011;22847;42.654;23.370;2022-10-31T16:25:27;46.08;;;19.92;;
36931;SDS011;22847;42.654;23.370;2022-10-31T16:28:03;24.05;;;10.70;;
36931;SDS011;22847;42.654;23.370;2022-10-31T16:30:35;29.67;;;12.50;;
36931;SDS011;22847;42.654;23.370;2022-10-31T16:39:09;26.27;;;9.52;;
36931;SDS011;22847;42.654;23.370;2022-10-31T16:41:36;28.90;;;10.48;;
36931;SDS011;22847;42.654;23.370;2022-10-31T16:44:06;35.47;;;12.70;;
36931;SDS011;22847;42.654;23.370;2022-10-31T16:46:41;30.58;;;12.95;;
36931;SDS011;22847;42.654;23.370;2022-10-31T16:49:08;31.13;;;13.43;;
36931;SDS011;22847;42.654;23.370;2022-10-31T16:51:34;26.48;;;11.48;;
36931;SDS011;22847;42.654;23.370;2022-10-31T16:54:00;39.35;;;15.00;;
36931;SDS011;22847;42.654;23.370;2022-10-31T16:56:27;40.88;;;14.32;;
36931;SDS011;22847;42.654;23.370;2022-10-31T16:58:55;40.20;;;12.50;;
36931;SDS011;22847;42.654;23.370;2022-10-31T17:01:21;31.80;;;10.07;;
36931;SDS011;22847;42.654;23.370;2022-10-31T17:03:46;28.00;;;9.38;;
36931;SDS011;22847;42.654;23.370;2022-10-31T17:06:12;28.85;;;10.20;;
36931;SDS011;22847;42.654;23.370;2022-10-31T17:08:38;30.90;;;11.23;;
36931;SDS011;22847;42.654;23.370;2022-10-31T17:11:04;36.65;;;10.07;;
36931;SDS011;22847;42.654;23.370;2022-10-31T17:13:30;23.52;;;6.97;;
36931;SDS011;22847;42.654;23.370;2022-10-31T17:15:59;15.63;;;5.80;;
36931;SDS011;22847;42.654;23.370;2022-10-31T17:18:26;16.02;;;5.60;;
36931;SDS011;22847;42.654;23.370;2022-10-31T17:20:59;16.63;;;6.25;;
36931;SDS011;22847;42.654;23.370;2022-10-31T17:25:53;18.98;;;5.82;;